createdAt,value
2017-07-09T00:00:02.509Z,84.15
2017-07-09T00:05:02.696Z,82.58
2017-07-09T00:10:02.887Z,84.25
2017-07-09T00:15:02.103Z,85.11
2017-07-09T00:20:02.564Z,84.5
2017-07-09T00:25:02.801Z,84.24
2017-07-09T00:30:03.013Z,84.27
2017-07-09T00:35:02.214Z,84.29
2017-07-09T00:40:02.408Z,84.34
2017-07-09T00:45:02.614Z,84.3
2017-07-09T00:50:02.931Z,84.07
2017-07-09T00:55:02.138Z,84.53
2017-07-09T01:00:02.391Z,85.17
2017-07-09T01:05:02.698Z,85.88
2017-07-09T01:10:02.934Z,86.28
2017-07-09T01:15:02.137Z,86.09
2017-07-09T01:20:02.717Z,85.5
2017-07-09T01:25:02.928Z,85.69
2017-07-09T01:30:02.139Z,85.46
2017-07-09T01:35:02.961Z,85.69
2017-07-09T01:40:02.207Z,86.46
2017-07-09T01:45:02.397Z,86.25
2017-07-09T01:50:02.431Z,86.78
2017-07-09T01:55:02.655Z,86.74
2017-07-09T02:00:02.843Z,86.92
2017-07-09T02:05:02.760Z,86.96
2017-07-09T02:10:02.976Z,86.48
2017-07-09T02:15:02.159Z,86.87
2017-07-09T02:20:02.766Z,87.17
2017-07-09T02:25:03.016Z,86.73
2017-07-09T02:30:02.235Z,87.33
2017-07-09T02:35:02.878Z,87.36
2017-07-09T02:40:02.081Z,86.66
2017-07-09T02:45:02.361Z,86.33
2017-07-09T02:50:02.444Z,87.05
2017-07-09T02:55:02.640Z,87.41
2017-07-09T03:00:02.883Z,87.1
2017-07-09T03:05:02.554Z,86.27
2017-07-09T03:10:02.838Z,87.1
2017-07-09T03:15:02.017Z,87.81
2017-07-09T03:20:02.823Z,88.85
2017-07-09T03:25:03.016Z,88.93
2017-07-09T03:30:02.218Z,89.36
2017-07-09T03:35:02.721Z,88.21
2017-07-09T03:40:02.918Z,89.1
2017-07-09T03:45:02.120Z,89.36
2017-07-09T03:50:02.600Z,88.84
2017-07-09T03:55:02.810Z,89.55
2017-07-09T04:00:03.023Z,89.87
2017-07-09T04:05:02.674Z,90.48
2017-07-09T04:10:02.863Z,90.1
2017-07-09T04:15:02.018Z,89.8
2017-07-09T04:20:02.534Z,89.4
2017-07-09T04:25:02.841Z,88.77
2017-07-09T04:30:02.033Z,88.4
2017-07-09T04:35:02.659Z,89.74
2017-07-09T04:40:02.837Z,89.72
2017-07-09T04:45:02.025Z,89.49
2017-07-09T04:50:02.151Z,89.62
2017-07-09T04:55:02.357Z,89.51
2017-07-09T05:00:02.583Z,90.36
2017-07-09T05:05:02.260Z,89.86
2017-07-09T05:10:02.473Z,89.65
2017-07-09T05:15:02.674Z,88.09
2017-07-09T05:20:02.842Z,87.46
2017-07-09T05:25:02.043Z,87.36
2017-07-09T05:30:02.280Z,87.91
2017-07-09T05:35:02.911Z,86.88
2017-07-09T05:40:02.121Z,86.56
2017-07-09T05:45:02.362Z,87.35
2017-07-09T05:50:02.634Z,87.56
2017-07-09T05:55:02.823Z,88.01
2017-07-09T06:00:03.029Z,88.27
2017-07-09T06:05:02.268Z,87.58
2017-07-09T06:10:02.442Z,87.51
2017-07-09T06:15:02.620Z,87.4
2017-07-09T06:20:02.183Z,87.12
2017-07-09T06:25:02.382Z,87.04
2017-07-09T06:30:02.557Z,86.17
2017-07-09T06:35:02.862Z,86.57
2017-07-09T06:40:02.108Z,87.37
2017-07-09T06:45:02.326Z,87.08
2017-07-09T06:50:02.668Z,87.01
2017-07-09T06:55:02.877Z,87.18
2017-07-09T07:00:02.073Z,87.07
2017-07-09T07:05:02.765Z,86.98
2017-07-09T07:10:02.959Z,86.09
2017-07-09T07:15:02.199Z,86.24
2017-07-09T07:20:02.784Z,86.14
2017-07-09T07:25:02.972Z,86.17
2017-07-09T07:30:02.202Z,85.53
2017-07-09T07:35:02.505Z,85.71
2017-07-09T07:40:02.708Z,84.66
2017-07-09T07:45:02.895Z,85.25
2017-07-09T07:50:02.720Z,86.56
2017-07-09T07:55:02.908Z,85.78
2017-07-09T08:00:02.113Z,85.28
2017-07-09T08:05:02.156Z,85.53
2017-07-09T08:10:02.423Z,85.4
2017-07-09T08:15:02.585Z,84.5
2017-07-09T08:20:02.061Z,84.04
2017-07-09T08:25:02.296Z,84.05
2017-07-09T08:30:02.455Z,83.26
2017-07-09T08:35:02.648Z,83.14
2017-07-09T08:40:02.829Z,83.08
2017-07-09T08:45:02.094Z,82.17
2017-07-09T08:50:02.270Z,78.52
2017-07-09T08:55:02.508Z,79.09
2017-07-09T09:00:02.694Z,81.56
2017-07-09T09:05:02.383Z,79.78
2017-07-09T09:10:02.594Z,78.08
2017-07-09T09:15:02.819Z,73.11
2017-07-09T09:20:02.920Z,72.67
2017-07-09T09:25:02.096Z,73.52
2017-07-09T09:30:02.324Z,74.7
2017-07-09T09:35:02.574Z,75.68
2017-07-09T09:40:02.746Z,77.1
2017-07-09T09:45:02.971Z,71.11
2017-07-09T09:50:02.700Z,72.61
2017-07-09T09:55:02.990Z,72.08
2017-07-09T10:00:02.185Z,72.3
2017-07-09T10:05:02.974Z,74.33
2017-07-09T10:10:02.165Z,72.9
2017-07-09T10:15:02.388Z,72.52
2017-07-09T10:20:02.919Z,73.93
2017-07-09T10:25:02.106Z,69.91
2017-07-09T10:30:02.356Z,68.56
2017-07-09T10:35:02.046Z,70.79
2017-07-09T10:40:02.298Z,70.8
2017-07-09T10:45:02.514Z,65.92
2017-07-09T10:50:02.623Z,69.53
2017-07-09T10:55:02.817Z,69.56
2017-07-09T11:00:03.006Z,71.95
2017-07-09T11:05:02.324Z,67.64
2017-07-09T11:10:02.546Z,69.84
2017-07-09T11:15:02.720Z,69.81
2017-07-09T11:20:02.359Z,70.3
2017-07-09T11:25:02.612Z,72.94
2017-07-09T11:30:02.831Z,74.39
2017-07-09T11:35:02.022Z,71.31
2017-07-09T11:40:02.275Z,73.05
2017-07-09T11:45:02.484Z,71.11
2017-07-09T11:50:02.681Z,70.47
2017-07-09T11:55:02.938Z,72.82
2017-07-09T12:00:02.186Z,69.92
2017-07-09T12:05:02.801Z,71.43
2017-07-09T12:10:03.034Z,70.67
2017-07-09T12:15:02.233Z,72.56
2017-07-09T12:20:03.012Z,72.03
2017-07-09T12:25:02.237Z,73.53
2017-07-09T12:30:02.413Z,71.72
2017-07-09T12:35:02.383Z,72.61
2017-07-09T12:40:02.633Z,71.05
2017-07-09T12:45:02.866Z,72.1
2017-07-09T12:50:02.304Z,71.25
2017-07-09T12:55:02.519Z,73.43
2017-07-09T13:00:02.716Z,71.53
2017-07-09T13:05:02.548Z,67.57
2017-07-09T13:10:02.742Z,73.41
2017-07-09T13:15:02.940Z,70.04
2017-07-09T13:20:02.072Z,69.28
2017-07-09T13:25:02.319Z,71.75
2017-07-09T13:30:02.523Z,69.48
2017-07-09T13:35:02.758Z,70.88
2017-07-09T13:40:03.010Z,71.21
2017-07-09T13:45:02.265Z,70.02
2017-07-09T13:50:02.988Z,72.62
2017-07-09T13:55:02.165Z,70.63
2017-07-09T14:00:02.401Z,70.66
2017-07-09T14:05:02.263Z,69.86
2017-07-09T14:10:02.481Z,70.99
2017-07-09T14:15:02.624Z,72.97
2017-07-09T14:20:02.793Z,74.96
2017-07-09T14:25:03.010Z,70.29
2017-07-09T14:30:02.203Z,69.86
2017-07-09T14:35:02.429Z,73.86
2017-07-09T14:40:02.691Z,71.06
2017-07-09T14:45:02.909Z,69.03
2017-07-09T14:50:02.351Z,69.41
2017-07-09T14:55:02.543Z,69.95
2017-07-09T15:00:02.769Z,69.59
2017-07-09T15:05:02.659Z,68.02
2017-07-09T15:10:02.863Z,68.86
2017-07-09T15:15:02.002Z,70.31
2017-07-09T15:20:02.287Z,69.73
2017-07-09T15:25:02.498Z,70.41
2017-07-09T15:30:02.725Z,68.47
2017-07-09T15:35:02.948Z,71.21
2017-07-09T15:40:02.114Z,69.24
2017-07-09T15:45:02.353Z,68.5
2017-07-09T15:50:02.472Z,68.3
2017-07-09T15:55:02.664Z,68.36
2017-07-09T16:00:02.850Z,68.18
2017-07-09T16:05:02.942Z,68.12
2017-07-09T16:10:02.126Z,68.75
2017-07-09T16:15:02.361Z,68.53
2017-07-09T16:20:02.090Z,69.47
2017-07-09T16:25:02.324Z,70.63
2017-07-09T16:30:02.518Z,70.22
2017-07-09T16:35:02.330Z,70.6
2017-07-09T16:40:02.540Z,70.6
2017-07-09T16:45:02.785Z,71.96
2017-07-09T16:50:02.038Z,70.79
2017-07-09T16:55:02.263Z,72.69
2017-07-09T17:00:02.506Z,70.91
2017-07-09T17:05:02.808Z,70.4
2017-07-09T17:10:03.011Z,70.18
2017-07-09T17:15:02.241Z,71.7
2017-07-09T17:20:02.571Z,71.27
2017-07-09T17:25:02.729Z,71.88
2017-07-09T17:30:02.964Z,71.54
2017-07-09T17:35:02.131Z,71.4
2017-07-09T17:40:02.407Z,71.82
2017-07-09T17:45:02.599Z,72.47
2017-07-09T17:50:02.810Z,71.4
2017-07-09T17:55:02.988Z,72.43
2017-07-09T18:00:02.196Z,73.92
2017-07-09T18:05:02.286Z,74.19
2017-07-09T18:10:02.476Z,75.7
2017-07-09T18:15:02.701Z,75.7
2017-07-09T18:20:02.853Z,75.93
2017-07-09T18:25:02.046Z,76.83
2017-07-09T18:30:02.308Z,76.39
2017-07-09T18:35:02.670Z,76.52
2017-07-09T18:40:02.899Z,76.83
2017-07-09T18:45:02.087Z,77.74
2017-07-09T18:50:02.334Z,77.59
2017-07-09T18:55:02.555Z,78.2
2017-07-09T19:00:02.753Z,79.09
2017-07-09T19:05:02.359Z,78.73
2017-07-09T19:10:02.625Z,79.64
2017-07-09T19:15:02.803Z,80.31
2017-07-09T19:20:02.811Z,80.54
2017-07-09T19:25:03.023Z,81.22
2017-07-09T19:30:02.245Z,81.76
2017-07-09T19:35:02.432Z,81.45
2017-07-09T19:40:02.641Z,82.12
2017-07-09T19:45:02.871Z,82.84
2017-07-09T19:50:02.106Z,83
2017-07-09T19:55:02.356Z,82.79
2017-07-09T20:00:02.520Z,83.47
2017-07-09T20:05:02.073Z,84.02
2017-07-09T20:10:02.331Z,83.78
2017-07-09T20:15:02.573Z,83.98
2017-07-09T20:20:03.017Z,84.2
2017-07-09T20:25:02.206Z,84.47
2017-07-09T20:30:02.454Z,85.12
2017-07-09T20:35:02.765Z,85.28
2017-07-09T20:40:02.969Z,85.27
2017-07-09T20:45:02.185Z,85.7
2017-07-09T20:50:02.738Z,86.01
2017-07-09T20:55:02.973Z,86.15
2017-07-09T21:00:02.225Z,86.36
2017-07-09T21:05:02.977Z,86.75
2017-07-09T21:10:02.206Z,86.78
2017-07-09T21:15:02.409Z,87.57
2017-07-09T21:20:02.911Z,87.2
2017-07-09T21:25:02.087Z,88.14
2017-07-09T21:30:02.369Z,87.9
2017-07-09T21:35:02.675Z,88.43
2017-07-09T21:40:02.852Z,88.48
2017-07-09T21:45:02.064Z,88.84
2017-07-09T21:50:02.282Z,88.39
2017-07-09T21:55:02.486Z,89.07
2017-07-09T22:00:02.810Z,88.69
2017-07-09T22:05:02.067Z,89.07
2017-07-09T22:10:02.306Z,89.8
2017-07-09T22:15:02.506Z,89.94
2017-07-09T22:20:02.812Z,89.51
2017-07-09T22:25:02.078Z,89.76
2017-07-09T22:30:02.313Z,89.81
2017-07-09T22:35:02.352Z,89.81
2017-07-09T22:40:02.599Z,89.98
2017-07-09T22:45:02.786Z,89.33
2017-07-09T22:50:02.774Z,89.73
2017-07-09T22:55:02.988Z,89.71
2017-07-09T23:00:02.195Z,89.23
2017-07-09T23:05:02.462Z,88.94
2017-07-09T23:10:02.661Z,88.84
2017-07-09T23:15:02.874Z,89.33
2017-07-09T23:20:02.368Z,89.3
2017-07-09T23:25:02.592Z,89.36
2017-07-09T23:30:02.812Z,89.42
2017-07-09T23:35:02.302Z,89.52
2017-07-09T23:40:02.488Z,88.68
2017-07-09T23:45:02.677Z,88.22
2017-07-09T23:50:02.062Z,87.88
2017-07-09T23:55:02.292Z,88.49
